createdAt,value
2023-04-14T00:00:36.169Z,99613.47
2023-04-14T00:03:03.083Z,99618.34
2023-04-14T00:05:33.743Z,99615.25
2023-04-14T00:08:00.711Z,99612.44
2023-04-14T00:10:27.852Z,99616.03
2023-04-14T00:12:55.354Z,99601.41
2023-04-14T00:15:22.059Z,99607.03
2023-04-14T00:17:48.564Z,99603.47
2023-04-14T00:20:15.449Z,99607.28
2023-04-14T00:22:41.999Z,99614.22
2023-04-14T00:25:08.718Z,99611.16
2023-04-14T00:27:35.317Z,99607.44
2023-04-14T00:30:01.901Z,99609.34
2023-04-14T00:32:28.477Z,99609.19
2023-04-14T00:34:56.889Z,99615.34
2023-04-14T00:37:24.107Z,99632.13
2023-04-14T00:39:50.756Z,99637.53
2023-04-14T00:42:17.343Z,99632.91
2023-04-14T00:44:43.805Z,99637.00
2023-04-14T00:47:10.951Z,99636.78
2023-04-14T00:49:37.665Z,99642.41
2023-04-14T00:52:04.977Z,99650.44
2023-04-14T00:54:34.373Z,99649.28
2023-04-14T00:57:02.120Z,99658.25
2023-04-14T00:59:29.698Z,99652.75
2023-04-14T01:01:56.823Z,99634.59
2023-04-14T01:04:23.497Z,99622.66
2023-04-14T01:06:50.412Z,99618.56
2023-04-14T01:09:16.889Z,99621.50
2023-04-14T01:12:02.646Z,99621.00
2023-04-14T01:14:54.007Z,99627.66
2023-04-14T01:17:42.365Z,99627.78
2023-04-14T01:20:27.249Z,99636.50
2023-04-14T01:22:58.987Z,99639.44
2023-04-14T01:25:57.662Z,99636.50
2023-04-14T01:28:46.156Z,99640.47
2023-04-14T01:31:22.359Z,99642.13
2023-04-14T01:33:56.485Z,99647.00
2023-04-14T01:36:31.713Z,99647.13
2023-04-14T01:38:59.087Z,99631.25
2023-04-14T01:41:28.479Z,99632.69
2023-04-14T01:43:56.023Z,99624.22
2023-04-14T01:46:22.523Z,99624.09
2023-04-14T01:48:50.306Z,99623.31
2023-04-14T01:51:20.143Z,99623.72
2023-04-14T01:53:49.622Z,99630.13
2023-04-14T01:56:17.818Z,99631.91
2023-04-14T01:58:46.612Z,99627.56
2023-04-14T02:01:13.722Z,99623.56
2023-04-14T02:03:41.094Z,99621.91
2023-04-14T02:06:10.612Z,99616.53
2023-04-14T02:08:41.147Z,99607.69
2023-04-14T02:11:09.830Z,99607.84
2023-04-14T02:13:40.492Z,99607.09
2023-04-14T02:16:10.596Z,99611.94
2023-04-14T02:18:39.140Z,99618.84
2023-04-14T02:21:06.322Z,99618.59
2023-04-14T02:23:33.486Z,99612.69
2023-04-14T02:26:09.918Z,99605.03
2023-04-14T02:28:41.888Z,99615.13
2023-04-14T02:31:12.787Z,99596.31
2023-04-14T02:33:40.287Z,99592.88
2023-04-14T02:36:32.474Z,99604.91
2023-04-14T02:39:06.612Z,99599.91
2023-04-14T02:41:33.763Z,99600.44
2023-04-14T02:44:21.292Z,99597.88
2023-04-14T02:47:09.595Z,99596.19
2023-04-14T02:49:47.705Z,99595.56
2023-04-14T02:52:17.500Z,99591.75
2023-04-14T02:54:44.536Z,99589.28
2023-04-14T02:57:11.286Z,99588.03
2023-04-14T02:59:38.834Z,99593.63
2023-04-14T03:02:06.350Z,99595.28
2023-04-14T03:04:35.259Z,99593.88
2023-04-14T03:07:03.176Z,99595.53
2023-04-14T03:09:31.938Z,99593.50
2023-04-14T03:12:00.424Z,99587.84
2023-04-14T03:14:27.887Z,99592.69
2023-04-14T03:16:55.621Z,99594.63
2023-04-14T03:19:23.818Z,99594.66
2023-04-14T03:21:50.933Z,99591.47
2023-04-14T03:24:24.306Z,99585.31
2023-04-14T03:26:58.079Z,99588.63
2023-04-14T03:29:27.372Z,99588.78
2023-04-14T03:31:57.825Z,99590.69
2023-04-14T03:34:29.710Z,99583.53
2023-04-14T03:36:58.362Z,99585.84
2023-04-14T03:39:34.491Z,99590.28
2023-04-14T03:42:02.213Z,99584.53
2023-04-14T03:44:32.860Z,99584.53
2023-04-14T03:47:02.191Z,99589.75
2023-04-14T03:49:33.110Z,99583.50
2023-04-14T03:52:05.157Z,99582.31
2023-04-14T03:54:33.735Z,99577.34
2023-04-14T03:57:04.648Z,99585.59
2023-04-14T03:59:32.711Z,99583.94
2023-04-14T04:02:00.398Z,99573.91
2023-04-14T04:04:27.546Z,99571.00
2023-04-14T04:06:54.234Z,99569.97
2023-04-14T04:09:24.452Z,99577.13
2023-04-14T04:11:52.573Z,99574.69
2023-04-14T04:14:21.142Z,99571.19
2023-04-14T04:16:49.770Z,99575.00
2023-04-14T04:19:20.421Z,99575.94
2023-04-14T04:21:49.290Z,99571.16
2023-04-14T04:24:18.161Z,99566.06
2023-04-14T04:26:44.561Z,99572.38
2023-04-14T04:29:11.902Z,99572.28
2023-04-14T04:31:39.928Z,99573.91
2023-04-14T04:34:07.761Z,99575.97
2023-04-14T04:36:35.949Z,99578.47
2023-04-14T04:39:03.253Z,99582.41
2023-04-14T04:41:30.620Z,99582.56
2023-04-14T04:43:57.195Z,99581.53
2023-04-14T04:46:48.370Z,99577.88
2023-04-14T04:49:15.674Z,99578.88
2023-04-14T04:51:44.542Z,99587.81
2023-04-14T04:54:11.137Z,99588.59
2023-04-14T04:56:38.549Z,99585.88
2023-04-14T04:59:05.051Z,99587.28
2023-04-14T05:01:31.486Z,99585.56
2023-04-14T05:03:58.046Z,99596.72
2023-04-14T05:06:24.780Z,99601.81
2023-04-14T05:08:53.101Z,99600.53
2023-04-14T05:11:20.086Z,99596.25
2023-04-14T05:13:46.859Z,99597.00
2023-04-14T05:16:14.024Z,99599.69
2023-04-14T05:18:42.233Z,99607.09
2023-04-14T05:21:13.366Z,99605.66
2023-04-14T05:23:42.470Z,99603.56
2023-04-14T05:26:31.320Z,99603.56
2023-04-14T05:28:57.049Z,99611.88
2023-04-14T05:31:23.820Z,99608.06
2023-04-14T05:33:50.297Z,99608.69
2023-04-14T05:36:17.463Z,99622.75
2023-04-14T05:38:44.632Z,99613.00
2023-04-14T05:41:12.102Z,99618.53
2023-04-14T05:43:38.766Z,99618.63
2023-04-14T05:46:05.780Z,99620.16
2023-04-14T05:48:33.618Z,99630.41
2023-04-14T05:51:00.279Z,99624.69
2023-04-14T05:53:27.805Z,99623.66
2023-04-14T05:55:54.468Z,99630.69
2023-04-14T05:58:21.631Z,99629.78
2023-04-14T06:00:48.711Z,99625.25
2023-04-14T06:03:16.743Z,99632.22
2023-04-14T06:05:43.775Z,99624.97
2023-04-14T06:08:10.448Z,99621.91
2023-04-14T06:10:37.138Z,99630.16
2023-04-14T06:13:03.676Z,99630.84
2023-04-14T06:15:31.177Z,99630.88
2023-04-14T06:17:57.856Z,99638.59
2023-04-14T06:20:24.659Z,99640.94
2023-04-14T06:22:51.410Z,99638.41
2023-04-14T06:25:18.149Z,99642.06
2023-04-14T06:27:44.677Z,99635.44
2023-04-14T06:30:11.817Z,99641.75
2023-04-14T06:32:38.317Z,99632.19
2023-04-14T06:35:32.433Z,99633.00
2023-04-14T06:37:59.875Z,99625.47
2023-04-14T06:40:27.129Z,99622.53
2023-04-14T06:42:53.625Z,99636.72
2023-04-14T06:45:20.353Z,99636.19
2023-04-14T06:47:47.178Z,99631.13
2023-04-14T06:50:14.424Z,99628.31
2023-04-14T06:52:40.941Z,99637.66
2023-04-14T06:55:07.679Z,99643.44
2023-04-14T06:57:34.126Z,99638.66
2023-04-14T07:00:00.578Z,99645.47
2023-04-14T07:02:28.816Z,99648.00
2023-04-14T07:04:55.431Z,99646.72
2023-04-14T07:07:21.875Z,99641.97
2023-04-14T07:09:48.380Z,99634.66
2023-04-14T07:12:17.844Z,99637.47
2023-04-14T07:14:51.010Z,99643.22
2023-04-14T07:17:18.749Z,99643.41
2023-04-14T07:19:46.172Z,99642.19
2023-04-14T07:22:12.872Z,99650.84
2023-04-14T07:24:41.435Z,99660.22
2023-04-14T07:27:14.993Z,99657.28
2023-04-14T07:29:42.107Z,99662.81
2023-04-14T07:32:08.617Z,99667.22
2023-04-14T07:34:35.546Z,99667.94
2023-04-14T07:37:02.050Z,99669.72
2023-04-14T07:39:28.465Z,99674.59
2023-04-14T07:41:57.682Z,99687.88
2023-04-14T07:44:24.385Z,99680.06
2023-04-14T07:46:51.246Z,99684.63
2023-04-14T07:49:23.604Z,99691.63
2023-04-14T07:51:51.189Z,99693.16
2023-04-14T07:54:17.700Z,99692.88
2023-04-14T07:56:44.106Z,99694.06
2023-04-14T07:59:10.695Z,99700.16
2023-04-14T08:01:37.616Z,99707.13
2023-04-14T08:04:04.469Z,99703.47
2023-04-14T08:06:31.174Z,99700.59
2023-04-14T08:08:57.914Z,99714.81
2023-04-14T08:11:25.222Z,99712.47
2023-04-14T08:13:52.855Z,99704.44
2023-04-14T08:16:19.790Z,99714.50
2023-04-14T08:18:46.266Z,99725.31
2023-04-14T08:21:12.756Z,99714.97
2023-04-14T08:23:39.239Z,99713.84
2023-04-14T08:26:05.720Z,99720.91
2023-04-14T08:28:32.158Z,99723.25
2023-04-14T08:30:58.631Z,99728.06
2023-04-14T08:33:25.264Z,99737.69
2023-04-14T08:35:59.506Z,99737.59
2023-04-14T08:38:27.236Z,99746.41
2023-04-14T08:40:56.094Z,99744.97
2023-04-14T08:43:22.691Z,99746.53
2023-04-14T08:45:51.551Z,99750.59
2023-04-14T08:48:19.948Z,99749.94
2023-04-14T08:50:59.221Z,99751.81
2023-04-14T08:53:27.612Z,99748.13
2023-04-14T08:55:57.966Z,99745.56
2023-04-14T08:58:25.254Z,99756.41
2023-04-14T09:00:53.450Z,99755.25
2023-04-14T09:03:21.229Z,99751.81
2023-04-14T09:05:47.865Z,99755.53
2023-04-14T09:08:16.534Z,99749.88
2023-04-14T09:10:43.216Z,99748.31
2023-04-14T09:13:12.584Z,99748.47
2023-04-14T09:15:39.086Z,99749.78
2023-04-14T09:18:05.682Z,99744.38
2023-04-14T09:20:36.314Z,99752.03
2023-04-14T09:23:08.203Z,99747.75
2023-04-14T09:25:34.737Z,99745.88
2023-04-14T09:28:01.262Z,99752.56
2023-04-14T09:30:28.784Z,99752.78
2023-04-14T09:32:55.664Z,99751.84
2023-04-14T09:35:22.729Z,99750.78
2023-04-14T09:37:49.624Z,99755.94
2023-04-14T09:40:30.211Z,99760.00
2023-04-14T09:42:57.362Z,99751.31
2023-04-14T09:45:41.625Z,99754.88
2023-04-14T09:48:10.737Z,99757.63
2023-04-14T09:51:03.459Z,99761.34
2023-04-14T09:53:31.823Z,99754.47
2023-04-14T09:56:00.039Z,99754.94
2023-04-14T09:58:31.129Z,99748.78
2023-04-14T10:00:59.362Z,99747.25
2023-04-14T10:03:34.657Z,99746.88
2023-04-14T10:06:04.580Z,99740.00
2023-04-14T10:08:38.217Z,99739.22
2023-04-14T10:11:35.523Z,99734.22
2023-04-14T10:14:04.705Z,99747.53
2023-04-14T10:16:31.847Z,99737.44
2023-04-14T10:18:58.883Z,99736.78
2023-04-14T10:21:27.806Z,99734.69
2023-04-14T10:23:56.760Z,99732.16
2023-04-14T10:26:23.234Z,99731.56
2023-04-14T10:28:51.584Z,99725.13
2023-04-14T10:31:23.723Z,99717.75
2023-04-14T10:33:50.332Z,99714.22
2023-04-14T10:36:29.183Z,99713.44
2023-04-14T10:39:03.608Z,99707.59
2023-04-14T10:41:49.546Z,99706.78
2023-04-14T10:44:33.030Z,99709.06
2023-04-14T10:47:02.093Z,99704.66
2023-04-14T10:49:36.907Z,99704.28
2023-04-14T10:52:26.309Z,99707.94
2023-04-14T10:55:00.825Z,99704.25
2023-04-14T10:57:30.316Z,99701.75
2023-04-14T11:00:00.584Z,99693.50
2023-04-14T11:02:34.697Z,99691.53
2023-04-14T11:05:08.818Z,99685.06
2023-04-14T11:07:44.623Z,99682.22
2023-04-14T11:10:17.166Z,99677.91
2023-04-14T11:12:44.866Z,99681.81
2023-04-14T11:15:11.700Z,99676.69
2023-04-14T11:17:43.213Z,99674.47
2023-04-14T11:20:23.556Z,99668.63
2023-04-14T11:22:52.662Z,99665.84
2023-04-14T11:25:24.134Z,99661.75
2023-04-14T11:27:51.745Z,99663.50
2023-04-14T11:30:19.691Z,99658.19
2023-04-14T11:32:51.366Z,99654.81
2023-04-14T11:35:19.613Z,99654.44
2023-04-14T11:37:46.979Z,99654.97
2023-04-14T11:40:15.593Z,99642.91
2023-04-14T11:42:47.088Z,99643.28
2023-04-14T11:45:17.731Z,99635.53
2023-04-14T11:48:00.204Z,99636.84
2023-04-14T11:50:30.143Z,99636.41
2023-04-14T11:52:59.516Z,99630.78
2023-04-14T11:55:29.897Z,99634.16
2023-04-14T11:57:57.228Z,99620.50
2023-04-14T12:00:24.519Z,99618.53
2023-04-14T12:02:51.637Z,99620.69
2023-04-14T12:05:23.560Z,99613.59
2023-04-14T12:07:50.377Z,99621.56
2023-04-14T12:10:17.816Z,99617.44
2023-04-14T12:12:44.267Z,99612.09
2023-04-14T12:15:11.720Z,99611.72
2023-04-14T12:17:39.532Z,99611.13
2023-04-14T12:20:06.712Z,99607.94
2023-04-14T12:22:33.174Z,99611.66
2023-04-14T12:24:59.852Z,99606.50
2023-04-14T12:27:27.532Z,99597.31
2023-04-14T12:29:54.045Z,99590.75
2023-04-14T12:32:22.282Z,99590.94
2023-04-14T12:34:57.705Z,99585.97
2023-04-14T12:37:26.628Z,99588.19
2023-04-14T12:40:01.230Z,99586.56
2023-04-14T12:42:29.601Z,99577.91
2023-04-14T12:44:57.922Z,99568.63
2023-04-14T12:47:34.517Z,99569.69
2023-04-14T12:50:21.627Z,99570.66
2023-04-14T12:52:48.071Z,99557.88
2023-04-14T12:55:25.459Z,99565.53
2023-04-14T12:57:55.744Z,99559.63
2023-04-14T13:00:23.435Z,99561.00
2023-04-14T13:02:51.244Z,99558.44
2023-04-14T13:05:18.146Z,99563.13
2023-04-14T13:07:44.626Z,99550.88
2023-04-14T13:10:11.440Z,99553.47
2023-04-14T13:12:38.548Z,99548.38
2023-04-14T13:15:05.864Z,99545.94
2023-04-14T13:17:32.577Z,99545.06
2023-04-14T13:19:59.068Z,99534.78
2023-04-14T13:22:25.582Z,99524.28
2023-04-14T13:24:52.049Z,99525.06
2023-04-14T13:27:19.091Z,99522.78
2023-04-14T13:29:46.092Z,99520.34
2023-04-14T13:32:12.767Z,99521.47
2023-04-14T13:34:40.090Z,99518.63
2023-04-14T13:37:06.511Z,99515.00
2023-04-14T13:39:33.159Z,99509.78
2023-04-14T13:41:59.594Z,99511.34
2023-04-14T13:44:26.064Z,99499.72
2023-04-14T13:46:53.127Z,99501.00
2023-04-14T13:49:19.835Z,99503.72
2023-04-14T13:51:46.441Z,99501.00
2023-04-14T13:54:12.964Z,99494.84
2023-04-14T13:56:39.444Z,99496.19
2023-04-14T13:59:06.073Z,99500.28
2023-04-14T14:01:32.583Z,99486.41
2023-04-14T14:03:59.540Z,99491.72
2023-04-14T14:06:26.494Z,99483.34
2023-04-14T14:09:05.572Z,99482.00
2023-04-14T14:11:33.170Z,99478.25
2023-04-14T14:13:59.941Z,99475.72
2023-04-14T14:18:56.591Z,99469.41
2023-04-14T14:21:23.040Z,99469.31
2023-04-14T14:23:49.641Z,99467.44
2023-04-14T14:26:16.098Z,99469.22
2023-04-14T14:28:42.766Z,99472.88
2023-04-14T14:31:09.378Z,99464.13
2023-04-14T14:33:35.820Z,99467.34
2023-04-14T14:36:05.856Z,99468.34
2023-04-14T14:38:32.636Z,99466.47
2023-04-14T14:40:59.111Z,99455.63
2023-04-14T14:43:25.579Z,99465.34
2023-04-14T14:45:52.026Z,99458.47
2023-04-14T14:48:18.528Z,99455.16
2023-04-14T14:50:45.074Z,99462.19
2023-04-14T14:53:11.548Z,99464.13
2023-04-14T14:55:37.977Z,99456.03
2023-04-14T14:58:06.262Z,99458.94
2023-04-14T15:00:32.758Z,99457.03
2023-04-14T15:02:59.400Z,99454.59
2023-04-14T15:05:26.081Z,99461.34
2023-04-14T15:07:52.622Z,99459.19
2023-04-14T15:10:19.083Z,99464.13
2023-04-14T15:12:45.494Z,99456.06
2023-04-14T15:15:12.048Z,99458.59
2023-04-14T15:17:38.788Z,99454.03
2023-04-14T15:20:06.358Z,99458.56
2023-04-14T15:22:32.941Z,99455.97
2023-04-14T15:24:59.398Z,99456.34
2023-04-14T15:27:25.902Z,99461.66
2023-04-14T15:29:52.397Z,99454.44
2023-04-14T15:32:24.997Z,99455.19
2023-04-14T15:34:53.901Z,99453.91
2023-04-14T15:37:21.986Z,99453.19
2023-04-14T15:39:51.324Z,99458.19
2023-04-14T15:42:18.915Z,99458.50
2023-04-14T15:44:45.404Z,99466.06
2023-04-14T15:47:12.071Z,99462.13
2023-04-14T15:49:38.471Z,99462.06
2023-04-14T15:52:05.951Z,99466.53
2023-04-14T15:54:33.596Z,99462.97
2023-04-14T15:57:00.026Z,99467.13
2023-04-14T15:59:28.723Z,99464.53
2023-04-14T16:01:56.097Z,99470.41
2023-04-14T16:04:23.264Z,99465.88
2023-04-14T16:06:49.889Z,99468.41
2023-04-14T16:09:16.302Z,99473.69
2023-04-14T16:11:42.726Z,99469.47
2023-04-14T16:14:09.184Z,99474.50
2023-04-14T16:16:36.358Z,99477.06
2023-04-14T16:19:02.975Z,99483.13
2023-04-14T16:21:29.671Z,99482.94
2023-04-14T16:23:56.314Z,99475.06
2023-04-14T16:26:23.789Z,99479.31
2023-04-14T16:28:50.233Z,99478.34
2023-04-14T16:31:17.724Z,99480.03
2023-04-14T16:33:44.318Z,99484.28
2023-04-14T16:36:11.182Z,99471.84
2023-04-14T16:38:37.596Z,99481.97
2023-04-14T16:41:04.306Z,99476.78
2023-04-14T16:43:31.039Z,99475.69
2023-04-14T16:46:04.488Z,99469.28
2023-04-14T16:48:32.363Z,99479.34
2023-04-14T16:51:06.209Z,99473.91
2023-04-14T16:53:32.676Z,99475.41
2023-04-14T16:56:09.423Z,99479.72
2023-04-14T16:58:37.918Z,99476.63
2023-04-14T17:01:06.038Z,99477.84
2023-04-14T17:03:32.870Z,99477.84
2023-04-14T17:05:59.551Z,99476.00
2023-04-14T17:08:26.541Z,99473.91
2023-04-14T17:10:53.185Z,99471.84
2023-04-14T17:13:19.852Z,99476.91
2023-04-14T17:15:49.455Z,99484.47
2023-04-14T17:18:20.064Z,99482.63
2023-04-14T17:20:46.664Z,99482.41
2023-04-14T17:23:13.975Z,99477.03
2023-04-14T17:25:41.290Z,99478.53
2023-04-14T17:28:07.712Z,99480.81
2023-04-14T17:30:36.014Z,99483.13
2023-04-14T17:33:06.914Z,99482.09
2023-04-14T17:35:34.576Z,99489.50
2023-04-14T17:38:01.216Z,99487.44
2023-04-14T17:40:28.255Z,99487.03
2023-04-14T17:42:55.201Z,99489.94
2023-04-14T17:45:25.439Z,99489.31
2023-04-14T17:47:53.559Z,99494.88
2023-04-14T17:50:21.659Z,99492.06
2023-04-14T17:52:49.802Z,99500.25
2023-04-14T17:55:16.505Z,99502.53
2023-04-14T17:57:43.327Z,99506.84
2023-04-14T18:00:10.988Z,99498.97
2023-04-14T18:02:39.269Z,99501.75
2023-04-14T18:05:06.911Z,99508.81
2023-04-14T18:07:33.523Z,99508.25
2023-04-14T18:09:59.987Z,99511.41
2023-04-14T18:12:26.476Z,99511.25
2023-04-14T18:14:53.244Z,99525.53
2023-04-14T18:17:20.367Z,99519.63
2023-04-14T18:19:46.894Z,99524.31
2023-04-14T18:22:13.389Z,99522.25
2023-04-14T18:29:38.403Z,99532.53
2023-04-14T18:32:04.855Z,99547.50
2023-04-14T18:34:31.319Z,99540.53
2023-04-14T18:36:57.762Z,99538.41
2023-04-14T18:39:25.024Z,99543.38
2023-04-14T18:41:51.452Z,99550.25
2023-04-14T18:44:18.245Z,99550.53
2023-04-14T18:46:44.814Z,99554.72
2023-04-14T18:49:11.633Z,99554.53
2023-04-14T18:51:38.084Z,99564.88
2023-04-14T18:54:04.652Z,99574.88
2023-04-14T18:56:31.530Z,99575.22
2023-04-14T18:58:57.932Z,99583.25
2023-04-14T19:01:24.529Z,99588.69
2023-04-14T19:03:51.013Z,99587.25
2023-04-14T19:06:17.466Z,99592.78
2023-04-14T19:08:43.903Z,99595.66
2023-04-14T19:11:11.822Z,99599.66
2023-04-14T19:13:38.677Z,99593.81
2023-04-14T19:16:08.362Z,99585.56
2023-04-14T19:18:35.452Z,99598.59
2023-04-14T19:21:02.685Z,99597.34
2023-04-14T19:23:30.104Z,99595.53
2023-04-14T19:25:57.512Z,99604.72
2023-04-14T19:28:24.593Z,99600.22
2023-04-14T19:30:51.023Z,99603.59
2023-04-14T19:33:17.583Z,99599.22
2023-04-14T19:35:44.789Z,99600.84
2023-04-14T19:38:11.756Z,99599.66
2023-04-14T19:40:38.334Z,99601.44
2023-04-14T19:43:04.770Z,99603.03
2023-04-14T19:45:31.176Z,99598.50
2023-04-14T19:47:57.797Z,99599.25
2023-04-14T19:50:24.230Z,99596.25
2023-04-14T19:52:52.047Z,99609.66
2023-04-14T19:55:18.921Z,99612.25
2023-04-14T19:57:45.666Z,99611.94
2023-04-14T20:00:12.701Z,99609.16
2023-04-14T20:02:40.566Z,99602.72
2023-04-14T20:05:07.370Z,99612.25
2023-04-14T20:07:33.802Z,99609.97
2023-04-14T20:10:01.353Z,99608.56
2023-04-14T20:12:28.423Z,99606.97
2023-04-14T20:14:54.851Z,99611.63
2023-04-14T20:17:22.582Z,99615.19
2023-04-14T20:19:50.485Z,99614.91
2023-04-14T20:22:17.039Z,99620.59
2023-04-14T20:24:43.967Z,99620.00
2023-04-14T20:27:10.950Z,99623.56
2023-04-14T20:29:37.365Z,99626.69
2023-04-14T20:32:04.205Z,99631.66
2023-04-14T20:34:30.604Z,99634.09
2023-04-14T20:36:56.987Z,99637.78
2023-04-14T20:39:23.572Z,99641.38
2023-04-14T20:41:50.893Z,99651.63
2023-04-14T20:44:17.399Z,99656.09
2023-04-14T20:46:43.865Z,99659.66
2023-04-14T20:49:11.097Z,99662.16
2023-04-14T20:51:37.818Z,99659.53
2023-04-14T20:54:04.301Z,99669.50
2023-04-14T20:56:31.854Z,99665.31
2023-04-14T20:58:58.782Z,99667.63
2023-04-14T21:01:27.622Z,99670.59
2023-04-14T21:03:54.851Z,99672.16
2023-04-14T21:06:21.958Z,99674.56
2023-04-14T21:08:48.430Z,99665.53
2023-04-14T21:11:18.227Z,99663.69
2023-04-14T21:15:25.533Z,99664.72
2023-04-14T21:16:34.973Z,99670.75
2023-04-14T21:19:03.619Z,99670.22
2023-04-14T21:21:30.398Z,99670.75
2023-04-14T21:23:56.782Z,99661.38
2023-04-14T21:26:23.784Z,99671.25
2023-04-14T21:28:50.749Z,99667.59
2023-04-14T21:31:17.442Z,99658.16
2023-04-14T21:33:44.016Z,99667.03
2023-04-14T21:36:10.724Z,99671.47
2023-04-14T21:38:38.585Z,99665.56
2023-04-14T21:41:05.783Z,99665.00
2023-04-14T21:43:32.356Z,99667.13
2023-04-14T21:45:58.803Z,99665.69
2023-04-14T21:48:25.389Z,99665.38
2023-04-14T21:50:51.913Z,99665.31
2023-04-14T21:53:19.262Z,99675.94
2023-04-14T21:55:46.270Z,99677.88
2023-04-14T21:58:13.003Z,99676.06
2023-04-14T22:00:41.019Z,99667.13
2023-04-14T22:03:07.954Z,99675.53
2023-04-14T22:05:34.480Z,99677.38
2023-04-14T22:08:00.937Z,99683.69
2023-04-14T22:10:31.894Z,99683.88
2023-04-14T22:12:59.679Z,99680.47
2023-04-14T22:15:27.394Z,99688.38
2023-04-14T22:17:53.843Z,99688.75
2023-04-14T22:20:20.436Z,99685.50
2023-04-14T22:22:46.855Z,99694.03
2023-04-14T22:25:13.248Z,99693.38
2023-04-14T22:27:39.685Z,99700.28
2023-04-14T22:30:06.707Z,99693.25
2023-04-14T22:32:33.138Z,99692.56
2023-04-14T22:34:59.645Z,99694.88
2023-04-14T22:37:26.581Z,99699.25
2023-04-14T22:39:53.023Z,99699.59
2023-04-14T22:42:19.404Z,99707.00
2023-04-14T22:44:47.983Z,99702.19
2023-04-14T22:47:14.567Z,99715.00
2023-04-14T22:49:41.132Z,99714.00
2023-04-14T22:52:07.543Z,99709.88
2023-04-14T22:54:33.964Z,99706.28
2023-04-14T22:57:00.396Z,99702.50
2023-04-14T22:59:27.048Z,99701.38
2023-04-14T23:01:53.583Z,99702.97
2023-04-14T23:04:20.260Z,99704.19
2023-04-14T23:06:47.309Z,99712.56
2023-04-14T23:09:13.709Z,99710.19
2023-04-14T23:11:40.097Z,99716.56
2023-04-14T23:14:06.560Z,99713.78
2023-04-14T23:16:33.014Z,99707.97
2023-04-14T23:18:59.637Z,99710.84
2023-04-14T23:21:26.296Z,99711.19
2023-04-14T23:23:52.778Z,99704.72
2023-04-14T23:26:21.135Z,99701.34
2023-04-14T23:28:47.598Z,99697.00
2023-04-14T23:31:14.166Z,99703.78
2023-04-14T23:33:40.872Z,99697.28
2023-04-14T23:36:07.692Z,99693.41
2023-04-14T23:38:34.337Z,99689.97
2023-04-14T23:41:01.361Z,99689.31
2023-04-14T23:43:28.990Z,99687.97
2023-04-14T23:45:56.099Z,99684.84
2023-04-14T23:48:22.698Z,99686.41
2023-04-14T23:51:00.876Z,99681.94
2023-04-14T23:53:36.078Z,99681.47
2023-04-14T23:56:03.927Z,99681.72
2023-04-14T23:58:30.704Z,99680.72
